createdAt,value
2018-06-08T00:01:38.686Z,19.40
2018-06-08T00:04:07.538Z,19.40
2018-06-08T00:09:11.540Z,19.30
2018-06-08T00:11:40.374Z,19.30
2018-06-08T00:14:09.323Z,19.30
2018-06-08T00:16:38.182Z,19.20
2018-06-08T00:19:06.993Z,19.20
2018-06-08T00:21:35.811Z,19.10
2018-06-08T00:24:04.643Z,19.10
2018-06-08T00:26:33.457Z,19.00
2018-06-08T00:29:02.274Z,18.90
2018-06-08T00:31:31.083Z,18.90
2018-06-08T00:33:59.899Z,18.90
2018-06-08T00:36:28.707Z,18.90
2018-06-08T00:38:57.524Z,19.00
2018-06-08T00:41:26.335Z,19.00
2018-06-08T00:43:55.172Z,19.00
2018-06-08T00:46:24.000Z,19.00
2018-06-08T00:48:53.226Z,19.00
2018-06-08T00:51:22.050Z,19.00
2018-06-08T00:53:50.877Z,18.90
2018-06-08T00:56:31.148Z,18.90
2018-06-08T00:58:59.982Z,18.80
2018-06-08T01:01:28.868Z,18.80
2018-06-08T01:03:57.699Z,18.80
2018-06-08T01:06:26.524Z,18.70
2018-06-08T01:08:55.367Z,18.70
2018-06-08T01:11:24.187Z,18.70
2018-06-08T01:13:53.015Z,18.60
2018-06-08T01:16:21.839Z,18.60
2018-06-08T01:18:50.663Z,18.60
2018-06-08T01:21:19.471Z,18.60
2018-06-08T01:23:48.293Z,18.50
2018-06-08T01:26:17.111Z,18.50
2018-06-08T01:28:45.955Z,18.50
2018-06-08T01:31:14.805Z,18.50
2018-06-08T01:33:43.628Z,18.40
2018-06-08T01:36:12.455Z,18.40
2018-06-08T01:38:41.288Z,18.40
2018-06-08T01:41:10.100Z,18.40
2018-06-08T01:43:38.915Z,18.40
2018-06-08T01:46:07.747Z,18.30
2018-06-08T01:48:36.571Z,18.30
2018-06-08T01:51:05.411Z,18.20
2018-06-08T01:53:34.239Z,18.20
2018-06-08T01:56:03.102Z,18.20
2018-06-08T01:58:31.907Z,18.20
2018-06-08T02:01:00.825Z,18.10
2018-06-08T02:03:29.535Z,18.10
2018-06-08T02:05:58.346Z,18.10
2018-06-08T02:08:27.159Z,18.10
2018-06-08T02:10:56.273Z,18.10
2018-06-08T02:15:53.591Z,18.10
2018-06-08T02:18:22.391Z,18.10
2018-06-08T02:20:51.206Z,18.10
2018-06-08T02:23:20.018Z,18.10
2018-06-08T02:25:48.826Z,18.10
2018-06-08T02:28:17.626Z,18.00
2018-06-08T02:30:46.449Z,18.00
2018-06-08T02:33:15.280Z,18.00
2018-06-08T02:35:44.082Z,18.00
2018-06-08T02:38:12.886Z,18.10
2018-06-08T02:40:41.707Z,18.00
2018-06-08T02:43:10.518Z,18.00
2018-06-08T02:45:39.346Z,18.00
2018-06-08T02:48:08.151Z,18.00
2018-06-08T02:50:36.962Z,18.00
2018-06-08T02:53:05.766Z,18.00
2018-06-08T02:55:34.575Z,18.00
2018-06-08T02:58:03.379Z,18.00
2018-06-08T03:00:32.199Z,18.00
2018-06-08T03:03:01.007Z,18.10
2018-06-08T03:05:30.270Z,18.10
2018-06-08T03:07:59.074Z,18.10
2018-06-08T03:10:27.949Z,18.20
2018-06-08T03:12:56.750Z,18.20
2018-06-08T03:15:25.575Z,18.20
2018-06-08T03:17:54.382Z,18.20
2018-06-08T03:20:23.609Z,18.30
2018-06-08T03:22:52.560Z,18.40
2018-06-08T03:25:21.395Z,18.50
2018-06-08T03:27:50.202Z,18.60
2018-06-08T03:30:19.045Z,18.70
2018-06-08T03:32:48.177Z,18.80
2018-06-08T03:35:16.987Z,18.90
2018-06-08T03:37:45.806Z,18.90
2018-06-08T03:42:43.210Z,19.10
2018-06-08T03:45:12.018Z,19.20
2018-06-08T03:47:40.846Z,19.30
2018-06-08T03:50:09.707Z,19.40
2018-06-08T03:52:38.510Z,19.50
2018-06-08T03:55:07.311Z,19.70
2018-06-08T03:57:36.331Z,19.90
2018-06-08T04:00:05.682Z,20.10
2018-06-08T04:02:34.499Z,20.10
2018-06-08T04:05:03.348Z,20.10
2018-06-08T04:07:32.144Z,20.10
2018-06-08T04:10:00.962Z,20.20
2018-06-08T04:12:29.775Z,20.30
2018-06-08T04:14:58.662Z,20.40
2018-06-08T04:17:27.485Z,20.60
2018-06-08T04:19:56.710Z,20.70
2018-06-08T04:22:25.498Z,20.80
2018-06-08T04:24:54.516Z,21.00
2018-06-08T04:27:23.340Z,21.10
2018-06-08T04:29:52.150Z,21.30
2018-06-08T04:32:20.962Z,21.50
2018-06-08T04:34:49.764Z,21.80
2018-06-08T04:37:18.578Z,22.20
2018-06-08T04:39:47.386Z,22.50
2018-06-08T04:42:16.192Z,22.70
2018-06-08T04:44:44.994Z,23.00
2018-06-08T04:47:13.795Z,23.40
2018-06-08T04:49:42.618Z,23.90
2018-06-08T04:52:11.418Z,24.20
2018-06-08T04:54:40.232Z,24.50
2018-06-08T04:57:09.074Z,24.70
2018-06-08T04:59:37.922Z,24.90
2018-06-08T05:02:06.719Z,24.70
2018-06-08T05:04:35.524Z,24.60
2018-06-08T05:07:04.623Z,24.40
2018-06-08T05:09:33.434Z,24.30
2018-06-08T05:12:02.261Z,24.50
2018-06-08T05:14:31.062Z,25.10
2018-06-08T05:16:59.858Z,25.90
2018-06-08T05:19:28.666Z,26.70
2018-06-08T05:21:57.463Z,27.60
2018-06-08T05:24:26.299Z,28.30
2018-06-08T05:26:55.196Z,28.90
2018-06-08T05:29:23.979Z,29.50
2018-06-08T05:31:52.779Z,30.60
2018-06-08T05:34:21.587Z,31.30
2018-06-08T05:36:51.075Z,32.00
2018-06-08T05:39:19.886Z,32.70
2018-06-08T05:41:48.719Z,33.80
2018-06-08T05:44:17.598Z,34.50
2018-06-08T05:46:46.398Z,34.80
2018-06-08T05:49:15.214Z,35.90
2018-06-08T05:51:44.018Z,36.50
2018-06-08T05:54:12.850Z,36.80
2018-06-08T05:56:41.642Z,37.40
2018-06-08T05:59:10.463Z,37.80
2018-06-08T06:01:39.273Z,38.30
2018-06-08T06:04:08.069Z,38.50
2018-06-08T06:06:36.875Z,38.90
2018-06-08T06:09:07.950Z,39.10
2018-06-08T06:11:37.458Z,38.60
2018-06-08T06:14:06.270Z,38.40
2018-06-08T06:16:35.070Z,38.90
2018-06-08T06:21:32.467Z,39.50
2018-06-08T06:24:01.291Z,39.80
2018-06-08T06:26:30.103Z,39.80
2018-06-08T06:28:58.918Z,39.50
2018-06-08T06:31:27.741Z,38.70
2018-06-08T06:33:56.547Z,38.60
2018-06-08T06:36:25.358Z,39.20
2018-06-08T06:38:54.158Z,40.00
2018-06-08T06:41:22.974Z,40.60
2018-06-08T06:43:51.774Z,40.90
2018-06-08T06:46:20.619Z,40.70
2018-06-08T06:48:49.418Z,41.20
2018-06-08T06:51:18.236Z,41.50
2018-06-08T06:53:47.043Z,41.00
2018-06-08T06:56:15.851Z,40.20
2018-06-08T06:58:44.648Z,40.00
2018-06-08T07:01:13.508Z,39.80
2018-06-08T07:03:42.307Z,39.50
2018-06-08T07:06:11.168Z,39.20
2018-06-08T07:08:40.618Z,39.10
2018-06-08T07:11:09.422Z,38.50
2018-06-08T07:16:07.143Z,36.60
2018-06-08T07:18:35.938Z,35.80
2018-06-08T07:21:04.818Z,35.10
2018-06-08T07:23:33.614Z,34.90
2018-06-08T07:26:02.434Z,34.50
2018-06-08T07:28:31.238Z,34.10
2018-06-08T07:31:00.047Z,33.70
2018-06-08T07:33:28.848Z,33.00
2018-06-08T07:35:57.738Z,32.40
2018-06-08T07:38:26.546Z,32.00
2018-06-08T07:40:55.374Z,31.40
2018-06-08T07:43:24.189Z,31.20
2018-06-08T07:45:53.008Z,31.40
2018-06-08T07:48:21.812Z,31.20
2018-06-08T07:50:51.673Z,30.80
2018-06-08T07:53:20.470Z,30.60
2018-06-08T07:55:49.301Z,30.60
2018-06-08T07:58:18.099Z,30.70
2018-06-08T08:00:46.935Z,31.20
2018-06-08T08:03:15.738Z,31.00
2018-06-08T08:05:44.538Z,30.80
2018-06-08T08:08:13.355Z,30.50
2018-06-08T08:10:42.156Z,30.40
2018-06-08T08:13:10.970Z,30.90
2018-06-08T08:15:39.775Z,31.40
2018-06-08T08:18:08.583Z,31.80
2018-06-08T08:20:37.379Z,32.30
2018-06-08T08:23:06.182Z,32.00
2018-06-08T08:25:35.073Z,32.00
2018-06-08T08:28:03.946Z,31.50
2018-06-08T08:30:32.739Z,31.00
2018-06-08T08:33:01.547Z,31.10
2018-06-08T08:35:30.329Z,30.90
2018-06-08T08:37:59.134Z,31.30
2018-06-08T08:42:56.523Z,31.40
2018-06-08T08:45:25.314Z,31.40
2018-06-08T08:47:54.125Z,31.50
2018-06-08T08:50:22.914Z,31.60
2018-06-08T08:52:51.734Z,31.60
2018-06-08T08:55:20.531Z,31.40
2018-06-08T08:57:49.349Z,30.90
2018-06-08T09:00:18.220Z,30.80
2018-06-08T09:02:47.019Z,31.00
2018-06-08T09:05:15.840Z,30.90
2018-06-08T09:07:44.664Z,31.00
2018-06-08T09:10:13.462Z,30.80
2018-06-08T09:15:10.871Z,30.40
2018-06-08T09:17:39.678Z,30.50
2018-06-08T09:20:08.550Z,30.60
2018-06-08T09:22:37.298Z,30.60
2018-06-08T09:25:06.098Z,30.00
2018-06-08T09:27:34.986Z,29.60
2018-06-08T09:30:03.795Z,29.70
2018-06-08T09:32:32.743Z,30.00
2018-06-08T09:35:01.536Z,30.00
2018-06-08T09:37:30.327Z,29.80
2018-06-08T09:39:59.190Z,29.70
2018-06-08T09:42:27.923Z,29.90
2018-06-08T09:44:56.738Z,30.10
2018-06-08T09:47:25.535Z,30.20
2018-06-08T09:49:54.363Z,29.70
2018-06-08T09:52:23.171Z,29.60
2018-06-08T09:54:52.062Z,29.40
2018-06-08T09:57:20.806Z,29.60
2018-06-08T09:59:49.614Z,29.70
2018-06-08T10:02:18.411Z,30.00
2018-06-08T10:04:47.218Z,30.10
2018-06-08T10:07:16.035Z,30.00
2018-06-08T10:09:44.939Z,30.10
2018-06-08T10:12:13.746Z,29.90
2018-06-08T10:14:42.553Z,29.90
2018-06-08T10:17:11.351Z,29.90
2018-06-08T10:19:40.160Z,29.70
2018-06-08T10:22:08.963Z,29.50
2018-06-08T10:24:37.781Z,29.30
2018-06-08T10:27:06.579Z,29.40
2018-06-08T10:29:35.418Z,29.40
2018-06-08T10:32:04.233Z,29.10
2018-06-08T10:34:33.043Z,29.00
2018-06-08T10:37:01.862Z,29.00
2018-06-08T10:39:30.675Z,29.20
2018-06-08T10:41:59.479Z,29.20
2018-06-08T10:44:28.299Z,29.20
2018-06-08T10:46:57.103Z,29.30
2018-06-08T10:49:25.902Z,29.10
2018-06-08T10:51:54.702Z,29.10
2018-06-08T10:54:23.541Z,29.00
2018-06-08T10:56:52.344Z,29.00
2018-06-08T10:59:21.142Z,29.10
2018-06-08T11:01:49.942Z,29.30
2018-06-08T11:04:18.762Z,29.10
2018-06-08T11:06:47.571Z,28.90
2018-06-08T11:09:16.386Z,28.90
2018-06-08T11:11:45.226Z,28.90
2018-06-08T11:14:14.028Z,28.70
2018-06-08T11:16:42.826Z,28.70
2018-06-08T11:19:11.704Z,28.90
2018-06-08T11:21:40.546Z,29.00
2018-06-08T11:24:09.379Z,29.10
2018-06-08T11:26:38.183Z,29.10
2018-06-08T11:29:06.979Z,29.10
2018-06-08T11:31:35.882Z,29.00
2018-06-08T11:34:04.646Z,28.90
2018-06-08T11:36:33.479Z,28.80
2018-06-08T11:39:02.287Z,28.70
2018-06-08T11:41:31.098Z,28.60
2018-06-08T11:43:59.894Z,28.70
2018-06-08T11:46:28.787Z,28.90
2018-06-08T11:48:57.661Z,28.90
2018-06-08T11:51:26.483Z,28.80
2018-06-08T11:53:55.342Z,28.70
2018-06-08T11:56:24.138Z,28.70
2018-06-08T11:58:52.939Z,28.80
2018-06-08T12:01:21.750Z,28.80
2018-06-08T12:03:50.542Z,28.60
2018-06-08T12:06:19.362Z,28.50
2018-06-08T12:08:48.173Z,28.30
2018-06-08T12:11:16.987Z,28.20
2018-06-08T12:13:45.834Z,28.10
2018-06-08T12:16:14.638Z,28.00
2018-06-08T12:18:43.458Z,28.00
2018-06-08T12:21:12.343Z,28.10
2018-06-08T12:23:41.138Z,28.30
2018-06-08T12:26:09.934Z,28.30
2018-06-08T12:28:38.747Z,28.30
2018-06-08T12:31:07.559Z,28.20
2018-06-08T12:33:36.362Z,28.00
2018-06-08T12:36:05.809Z,28.00
2018-06-08T12:38:34.591Z,28.10
2018-06-08T12:41:03.399Z,28.20
2018-06-08T12:43:32.275Z,28.10
2018-06-08T12:46:01.114Z,28.40
2018-06-08T12:48:29.931Z,28.60
2018-06-08T12:50:58.827Z,28.70
2018-06-08T12:53:27.678Z,28.80
2018-06-08T12:55:56.466Z,28.90
2018-06-08T12:58:25.287Z,28.80
2018-06-08T13:00:54.090Z,28.90
2018-06-08T13:03:22.910Z,29.10
2018-06-08T13:05:51.735Z,29.10
2018-06-08T13:08:20.544Z,29.10
2018-06-08T13:10:49.403Z,29.00
2018-06-08T13:13:18.321Z,29.00
2018-06-08T13:15:47.197Z,29.00
2018-06-08T13:18:15.950Z,28.90
2018-06-08T13:20:44.746Z,28.80
2018-06-08T13:23:13.559Z,28.60
2018-06-08T13:25:42.346Z,28.50
2018-06-08T13:28:11.146Z,28.40
2018-06-08T13:30:39.943Z,28.40
2018-06-08T13:33:09.234Z,28.40
2018-06-08T13:35:38.021Z,28.30
2018-06-08T13:38:06.886Z,28.30
2018-06-08T13:40:35.759Z,28.20
2018-06-08T13:43:04.706Z,28.30
2018-06-08T13:45:33.494Z,28.20
2018-06-08T13:50:30.794Z,28.20
2018-06-08T13:52:59.635Z,28.20
2018-06-08T13:55:28.450Z,28.20
2018-06-08T13:57:57.266Z,28.20
2018-06-08T14:00:26.073Z,28.20
2018-06-08T14:02:54.879Z,28.20
2018-06-08T14:05:23.674Z,28.20
2018-06-08T14:07:52.476Z,28.30
2018-06-08T14:10:21.319Z,28.40
2018-06-08T14:12:50.122Z,28.60
2018-06-08T14:15:18.938Z,28.50
2018-06-08T14:17:47.778Z,28.40
2018-06-08T14:20:16.676Z,28.30
2018-06-08T14:22:45.516Z,28.40
2018-06-08T14:25:14.332Z,28.50
2018-06-08T14:27:43.127Z,28.50
2018-06-08T14:30:11.943Z,28.70
2018-06-08T14:32:40.733Z,28.60
2018-06-08T14:35:09.605Z,28.60
2018-06-08T14:37:38.424Z,28.70
2018-06-08T14:40:07.531Z,28.80
2018-06-08T14:45:04.834Z,28.80
2018-06-08T14:47:33.681Z,28.90
2018-06-08T14:50:02.876Z,28.90
2018-06-08T14:52:31.646Z,28.80
2018-06-08T14:55:00.450Z,28.70
2018-06-08T14:57:29.307Z,28.80
2018-06-08T14:59:58.122Z,28.90
2018-06-08T15:02:26.923Z,29.00
2018-06-08T15:04:55.718Z,29.10
2018-06-08T15:07:24.510Z,29.30
2018-06-08T15:09:53.343Z,29.20
2018-06-08T15:12:22.138Z,29.30
2018-06-08T15:14:50.942Z,29.10
2018-06-08T15:17:19.744Z,28.90
2018-06-08T15:19:48.546Z,28.80
2018-06-08T15:22:17.342Z,28.90
2018-06-08T15:24:46.151Z,29.10
2018-06-08T15:27:14.950Z,29.10
2018-06-08T15:29:43.758Z,29.10
2018-06-08T15:32:12.565Z,29.30
2018-06-08T15:34:41.410Z,29.10
2018-06-08T15:37:10.171Z,29.10
2018-06-08T15:39:38.967Z,29.20
2018-06-08T15:42:07.781Z,29.30
2018-06-08T15:44:37.446Z,29.40
2018-06-08T15:49:34.850Z,29.30
2018-06-08T15:52:03.658Z,29.40
2018-06-08T15:54:32.583Z,29.50
2018-06-08T15:57:01.399Z,29.40
2018-06-08T15:59:30.190Z,29.40
2018-06-08T16:01:58.995Z,29.30
2018-06-08T16:04:27.794Z,29.40
2018-06-08T16:06:56.602Z,29.20
2018-06-08T16:09:25.726Z,29.10
2018-06-08T16:11:54.531Z,29.00
2018-06-08T16:14:23.350Z,29.10
2018-06-08T16:16:52.150Z,29.20
2018-06-08T16:19:20.991Z,29.20
2018-06-08T16:21:49.783Z,28.90
2018-06-08T16:24:18.574Z,28.80
2018-06-08T16:26:47.431Z,28.80
2018-06-08T16:29:16.282Z,28.80
2018-06-08T16:31:45.124Z,28.80
2018-06-08T16:34:13.961Z,28.80
2018-06-08T16:36:42.855Z,28.80
2018-06-08T16:39:11.734Z,28.60
2018-06-08T16:41:40.550Z,28.60
2018-06-08T16:44:09.414Z,28.50
2018-06-08T16:46:38.447Z,28.50
2018-06-08T16:49:07.295Z,28.50
2018-06-08T16:51:36.119Z,28.60
2018-06-08T16:54:05.211Z,28.70
2018-06-08T16:56:34.346Z,28.80
2018-06-08T16:59:03.214Z,28.90
2018-06-08T17:01:32.067Z,28.80
2018-06-08T17:04:00.994Z,28.80
2018-06-08T17:06:30.028Z,28.80
2018-06-08T17:08:58.950Z,28.70
2018-06-08T17:11:27.767Z,28.50
2018-06-08T17:13:56.614Z,28.50
2018-06-08T17:16:25.427Z,28.50
2018-06-08T17:18:54.295Z,28.40
2018-06-08T17:21:23.176Z,28.50
2018-06-08T17:23:52.248Z,28.40
2018-06-08T17:26:21.073Z,28.30
2018-06-08T17:28:49.886Z,28.30
2018-06-08T17:31:18.789Z,28.30
2018-06-08T17:33:47.566Z,28.20
2018-06-08T17:36:16.386Z,28.20
2018-06-08T17:38:45.199Z,28.30
2018-06-08T17:41:14.002Z,28.20
2018-06-08T17:43:42.826Z,28.10
2018-06-08T17:46:11.642Z,28.10
2018-06-08T17:48:40.446Z,28.10
2018-06-08T17:51:09.274Z,28.00
2018-06-08T17:53:38.050Z,27.80
2018-06-08T17:56:06.887Z,27.70
2018-06-08T17:58:35.696Z,27.70
2018-06-08T18:01:04.487Z,27.60
2018-06-08T18:03:33.322Z,27.50
2018-06-08T18:06:02.185Z,27.50
2018-06-08T18:08:30.942Z,27.40
2018-06-08T18:10:59.742Z,27.40
2018-06-08T18:13:28.918Z,27.40
2018-06-08T18:15:57.738Z,27.40
2018-06-08T18:18:26.547Z,27.30
2018-06-08T18:20:55.339Z,27.30
2018-06-08T18:23:24.196Z,27.30
2018-06-08T18:25:52.968Z,27.20
2018-06-08T18:28:22.265Z,27.10
2018-06-08T18:30:51.063Z,27.00
2018-06-08T18:33:19.929Z,26.90
2018-06-08T18:35:48.677Z,26.90
2018-06-08T18:38:17.481Z,26.80
2018-06-08T18:40:46.278Z,26.70
2018-06-08T18:43:15.073Z,26.60
2018-06-08T18:48:12.467Z,26.50
2018-06-08T18:50:41.270Z,26.40
2018-06-08T18:53:10.063Z,26.30
2018-06-08T18:55:38.956Z,26.20
2018-06-08T18:58:08.353Z,26.20
2018-06-08T19:00:37.250Z,26.10
2018-06-08T19:03:06.127Z,26.00
2018-06-08T19:05:35.193Z,25.90
2018-06-08T19:08:04.107Z,25.80
2018-06-08T19:10:32.906Z,25.70
2018-06-08T19:13:01.791Z,25.60
2018-06-08T19:15:30.682Z,25.50
2018-06-08T19:17:59.618Z,25.30
2018-06-08T19:20:28.461Z,25.20
2018-06-08T19:22:57.338Z,25.10
2018-06-08T19:25:26.242Z,24.90
2018-06-08T19:27:55.121Z,24.80
2018-06-08T19:30:23.944Z,24.60
2018-06-08T19:32:52.742Z,24.60
2018-06-08T19:35:21.594Z,24.50
2018-06-08T19:37:50.386Z,24.40
2018-06-08T19:40:19.190Z,24.30
2018-06-08T19:42:48.003Z,24.20
2018-06-08T19:45:16.827Z,24.10
2018-06-08T19:47:46.890Z,24.00
2018-06-08T19:50:16.351Z,24.00
2018-06-08T19:52:45.115Z,23.90
2018-06-08T19:55:13.946Z,23.80
2018-06-08T19:57:42.764Z,23.80
2018-06-08T20:00:11.619Z,23.70
2018-06-08T20:02:40.426Z,23.60
2018-06-08T20:05:09.229Z,23.50
2018-06-08T20:07:38.038Z,23.40
2018-06-08T20:10:06.851Z,23.40
2018-06-08T20:12:35.686Z,23.30
2018-06-08T20:15:04.657Z,23.20
2018-06-08T20:17:33.499Z,23.10
2018-06-08T20:20:02.299Z,23.00
2018-06-08T20:22:31.130Z,22.90
2018-06-08T20:24:59.992Z,22.80
2018-06-08T20:27:28.795Z,22.70
2018-06-08T20:29:57.590Z,22.60
2018-06-08T20:32:26.414Z,22.50
2018-06-08T20:34:55.264Z,22.40
2018-06-08T20:37:24.085Z,22.40
2018-06-08T20:39:53.290Z,22.30
2018-06-08T20:42:22.106Z,22.30
2018-06-08T20:44:50.911Z,22.20
2018-06-08T20:47:19.714Z,22.20
2018-06-08T20:49:48.602Z,22.20
2018-06-08T20:52:17.410Z,22.10
2018-06-08T20:54:46.266Z,22.00
2018-06-08T20:57:26.571Z,22.00
2018-06-08T20:59:55.371Z,22.00
2018-06-08T21:02:24.351Z,22.00
2018-06-08T21:04:53.010Z,21.90
2018-06-08T21:07:21.818Z,21.80
2018-06-08T21:09:50.843Z,21.80
2018-06-08T21:12:20.355Z,21.70
2018-06-08T21:14:49.171Z,21.70
2018-06-08T21:17:17.982Z,21.70
2018-06-08T21:19:46.855Z,21.70
2018-06-08T21:22:15.746Z,21.60
2018-06-08T21:24:44.550Z,21.60
2018-06-08T21:27:13.361Z,21.60
2018-06-08T21:29:42.150Z,21.50
2018-06-08T21:32:10.987Z,21.50
2018-06-08T21:34:39.783Z,21.40
2018-06-08T21:37:08.626Z,21.30
2018-06-08T21:39:37.430Z,21.30
2018-06-08T21:42:06.230Z,21.20
2018-06-08T21:44:35.038Z,21.20
2018-06-08T21:47:03.858Z,21.10
2018-06-08T21:49:32.658Z,21.00
2018-06-08T21:52:01.486Z,21.00
2018-06-08T21:54:30.294Z,21.00
2018-06-08T21:56:59.095Z,20.90
2018-06-08T21:59:27.903Z,20.90
2018-06-08T22:01:56.707Z,20.90
2018-06-08T22:04:25.514Z,20.90
2018-06-08T22:06:54.326Z,20.80
2018-06-08T22:09:23.147Z,20.80
2018-06-08T22:11:51.947Z,20.80
2018-06-08T22:16:49.343Z,20.80
2018-06-08T22:19:18.154Z,20.90
2018-06-08T22:21:46.971Z,20.90
2018-06-08T22:26:44.302Z,20.90
2018-06-08T22:29:13.118Z,20.90
2018-06-08T22:31:41.930Z,20.90
2018-06-08T22:34:10.802Z,20.80
2018-06-08T22:36:39.675Z,20.80
2018-06-08T22:39:08.491Z,20.70
2018-06-08T22:41:37.306Z,20.60
2018-06-08T22:44:06.118Z,20.60
2018-06-08T22:46:34.918Z,20.50
2018-06-08T22:49:03.739Z,20.50
2018-06-08T22:51:32.559Z,20.40
2018-06-08T22:54:01.379Z,20.40
2018-06-08T22:56:30.178Z,20.40
2018-06-08T22:58:58.999Z,20.30
2018-06-08T23:01:27.814Z,20.30
2018-06-08T23:03:56.623Z,20.20
2018-06-08T23:06:25.446Z,20.20
2018-06-08T23:08:54.257Z,20.10
2018-06-08T23:11:23.100Z,20.00
2018-06-08T23:13:51.920Z,20.10
2018-06-08T23:16:20.751Z,20.00
2018-06-08T23:18:49.551Z,19.90
2018-06-08T23:21:18.365Z,19.90
2018-06-08T23:23:47.172Z,19.90
2018-06-08T23:26:15.998Z,19.90
2018-06-08T23:28:44.807Z,19.90
2018-06-08T23:31:13.619Z,19.90
2018-06-08T23:33:42.418Z,19.90
2018-06-08T23:36:11.247Z,19.90
2018-06-08T23:38:40.051Z,20.00
2018-06-08T23:41:08.863Z,20.00
2018-06-08T23:43:37.767Z,20.10
2018-06-08T23:46:06.638Z,20.10
2018-06-08T23:48:35.467Z,20.10
2018-06-08T23:51:04.275Z,20.10
2018-06-08T23:53:33.088Z,20.10
2018-06-08T23:56:01.907Z,20.10
2018-06-08T23:58:30.731Z,20.10
